createdAt,value
2018-03-04T00:00:04.354Z,0.00
2018-03-04T00:01:04.410Z,0.00
2018-03-04T00:02:04.462Z,0.00
2018-03-04T00:03:04.516Z,0.00
2018-03-04T00:04:04.572Z,0.00
2018-03-04T00:05:04.622Z,0.00
2018-03-04T00:06:04.675Z,0.00
2018-03-04T00:07:04.729Z,0.00
2018-03-04T00:08:04.782Z,0.00
2018-03-04T00:09:04.837Z,0.00
2018-03-04T00:10:04.891Z,0.00
2018-03-04T00:11:04.942Z,0.00
2018-03-04T00:12:04.998Z,0.00
2018-03-04T00:13:05.051Z,0.00
2018-03-04T00:14:05.104Z,0.00
2018-03-04T00:15:05.157Z,0.00
2018-03-04T00:16:05.211Z,0.00
2018-03-04T00:17:05.263Z,0.00
2018-03-04T00:18:05.317Z,0.00
2018-03-04T00:19:05.371Z,0.00
2018-03-04T00:20:05.425Z,0.00
2018-03-04T00:21:05.478Z,0.00
2018-03-04T00:22:05.537Z,0.00
2018-03-04T00:23:05.584Z,0.00
2018-03-04T00:24:05.641Z,0.00
2018-03-04T00:25:05.692Z,0.00
2018-03-04T00:26:05.745Z,0.00
2018-03-04T00:27:05.800Z,0.00
2018-03-04T00:28:05.853Z,0.00
2018-03-04T00:29:05.906Z,0.00
2018-03-04T00:30:05.963Z,0.00
2018-03-04T00:31:06.016Z,0.00
2018-03-04T00:32:06.065Z,0.00
2018-03-04T00:33:06.118Z,0.00
2018-03-04T00:34:06.173Z,0.00
2018-03-04T00:35:06.229Z,0.00
2018-03-04T00:36:06.580Z,0.00
2018-03-04T00:37:06.332Z,0.00
2018-03-04T00:38:06.389Z,0.00
2018-03-04T00:39:06.439Z,0.00
2018-03-04T00:40:06.492Z,0.00
2018-03-04T00:41:06.544Z,0.00
2018-03-04T00:42:06.598Z,0.00
2018-03-04T00:43:06.652Z,0.00
2018-03-04T00:44:06.705Z,0.00
2018-03-04T00:45:06.758Z,0.00
2018-03-04T00:46:06.812Z,0.00
2018-03-04T00:47:07.014Z,0.00
2018-03-04T00:48:06.918Z,0.00
2018-03-04T00:49:06.971Z,0.00
2018-03-04T00:50:07.025Z,0.00
2018-03-04T00:51:07.077Z,0.00
2018-03-04T00:52:07.131Z,0.00
2018-03-04T00:53:07.433Z,0.00
2018-03-04T00:54:07.237Z,0.00
2018-03-04T00:55:07.289Z,0.00
2018-03-04T00:56:07.343Z,0.00
2018-03-04T00:57:07.395Z,0.00
2018-03-04T00:58:07.449Z,0.00
2018-03-04T00:59:07.503Z,0.00
2018-03-04T01:00:07.558Z,0.00
2018-03-04T01:01:07.611Z,0.00
2018-03-04T01:02:07.663Z,0.00
2018-03-04T01:03:07.714Z,0.00
2018-03-04T01:04:07.768Z,0.00
2018-03-04T01:05:07.825Z,0.00
2018-03-04T01:06:07.875Z,0.00
2018-03-04T01:07:07.928Z,0.00
2018-03-04T01:08:07.981Z,0.00
2018-03-04T01:09:08.034Z,0.00
2018-03-04T01:10:08.088Z,0.00
2018-03-04T01:11:08.141Z,0.00
2018-03-04T01:12:08.195Z,0.00
2018-03-04T01:13:08.248Z,0.00
2018-03-04T01:14:08.304Z,0.00
2018-03-04T01:15:08.353Z,0.00
2018-03-04T01:16:08.408Z,0.00
2018-03-04T01:17:08.466Z,0.00
2018-03-04T01:18:08.513Z,0.00
2018-03-04T01:19:08.567Z,0.00
2018-03-04T01:20:08.622Z,0.00
2018-03-04T01:21:08.674Z,0.00
2018-03-04T01:22:08.728Z,0.00
2018-03-04T01:23:08.780Z,0.00
2018-03-04T01:24:08.834Z,0.00
2018-03-04T01:25:08.886Z,0.00
2018-03-04T01:26:08.942Z,0.00
2018-03-04T01:27:08.994Z,0.00
2018-03-04T01:28:09.052Z,0.00
2018-03-04T01:29:09.100Z,0.00
2018-03-04T01:30:09.155Z,0.00
2018-03-04T01:31:09.208Z,0.00
2018-03-04T01:32:09.262Z,0.00
2018-03-04T01:33:09.316Z,0.00
2018-03-04T01:34:09.367Z,0.00
2018-03-04T01:35:09.420Z,0.00
2018-03-04T01:36:09.477Z,0.00
2018-03-04T01:37:09.528Z,0.00
2018-03-04T01:38:09.580Z,0.00
2018-03-04T01:39:09.636Z,0.00
2018-03-04T01:40:09.697Z,0.00
2018-03-04T01:41:09.741Z,0.00
2018-03-04T01:42:09.794Z,0.00
2018-03-04T01:43:09.848Z,0.00
2018-03-04T01:44:09.905Z,0.00
2018-03-04T01:45:09.955Z,0.00
2018-03-04T01:46:10.009Z,0.00
2018-03-04T01:47:10.062Z,0.00
2018-03-04T01:48:10.116Z,0.00
2018-03-04T01:49:10.168Z,0.00
2018-03-04T01:50:10.229Z,0.00
2018-03-04T01:51:10.276Z,0.00
2018-03-04T01:52:10.329Z,0.00
2018-03-04T01:53:10.381Z,0.00
2018-03-04T01:54:10.437Z,0.00
2018-03-04T01:55:10.488Z,0.00
2018-03-04T01:56:10.547Z,0.00
2018-03-04T01:57:10.594Z,0.00
2018-03-04T01:58:10.648Z,0.00
2018-03-04T01:59:10.702Z,0.00
2018-03-04T02:00:10.754Z,0.00
2018-03-04T02:01:10.809Z,0.00
2018-03-04T02:02:10.861Z,0.00
2018-03-04T02:03:10.915Z,0.00
2018-03-04T02:04:10.968Z,0.00
2018-03-04T02:05:11.021Z,0.00
2018-03-04T02:06:11.075Z,0.00
2018-03-04T02:07:11.131Z,0.00
2018-03-04T02:08:11.182Z,0.00
2018-03-04T02:09:11.235Z,0.00
2018-03-04T02:10:11.288Z,0.00
2018-03-04T02:11:11.344Z,0.00
2018-03-04T02:12:11.396Z,0.00
2018-03-04T02:13:11.452Z,0.00
2018-03-04T02:14:11.503Z,0.00
2018-03-04T02:15:11.558Z,0.00
2018-03-04T02:16:11.612Z,0.00
2018-03-04T02:17:11.663Z,0.00
2018-03-04T02:18:11.718Z,0.00
2018-03-04T02:19:11.771Z,0.00
2018-03-04T02:20:11.827Z,0.00
2018-03-04T02:21:11.879Z,0.00
2018-03-04T02:22:11.932Z,0.00
2018-03-04T02:23:11.989Z,0.00
2018-03-04T02:24:12.040Z,0.00
2018-03-04T02:25:12.093Z,0.00
2018-03-04T02:26:12.146Z,0.00
2018-03-04T02:27:12.212Z,0.00
2018-03-04T02:28:12.252Z,0.00
2018-03-04T02:29:12.306Z,0.00
2018-03-04T02:30:12.361Z,0.00
2018-03-04T02:31:12.415Z,0.00
2018-03-04T02:32:12.468Z,0.00
2018-03-04T02:33:12.521Z,0.00
2018-03-04T02:34:12.574Z,0.00
2018-03-04T02:35:12.629Z,0.00
2018-03-04T02:36:12.933Z,0.00
2018-03-04T02:37:12.736Z,0.00
2018-03-04T02:38:12.799Z,0.00
2018-03-04T02:39:12.842Z,0.00
2018-03-04T02:40:12.896Z,0.00
2018-03-04T02:41:12.951Z,0.00
2018-03-04T02:42:13.002Z,0.00
2018-03-04T02:43:13.057Z,0.00
2018-03-04T02:44:13.112Z,0.00
2018-03-04T02:45:13.160Z,0.00
2018-03-04T02:46:13.216Z,0.00
2018-03-04T02:47:13.270Z,0.00
2018-03-04T02:48:13.322Z,0.00
2018-03-04T02:49:13.376Z,0.00
2018-03-04T02:50:13.429Z,0.00
2018-03-04T02:51:13.483Z,0.00
2018-03-04T02:52:13.536Z,0.00
2018-03-04T02:53:13.589Z,0.00
2018-03-04T02:54:13.643Z,0.00
2018-03-04T02:55:13.696Z,0.00
2018-03-04T02:56:13.749Z,0.00
2018-03-04T02:57:13.803Z,0.00
2018-03-04T02:58:14.108Z,0.00
2018-03-04T02:59:13.910Z,0.00
2018-03-04T03:00:13.964Z,0.00
2018-03-04T03:01:14.017Z,0.00
2018-03-04T03:02:14.069Z,0.00
2018-03-04T03:03:14.128Z,0.00
2018-03-04T03:04:14.177Z,0.00
2018-03-04T03:05:14.237Z,0.00
2018-03-04T03:06:14.283Z,0.00
2018-03-04T03:07:14.336Z,0.00
2018-03-04T03:08:14.389Z,0.00
2018-03-04T03:09:14.441Z,0.00
2018-03-04T03:10:14.494Z,0.00
2018-03-04T03:11:14.549Z,0.00
2018-03-04T03:12:14.602Z,0.00
2018-03-04T03:13:14.653Z,0.00
2018-03-04T03:14:14.710Z,0.00
2018-03-04T03:15:14.765Z,0.00
2018-03-04T03:16:14.813Z,0.00
2018-03-04T03:17:14.867Z,0.00
2018-03-04T03:18:14.919Z,0.00
2018-03-04T03:19:14.973Z,0.00
2018-03-04T03:20:15.027Z,0.00
2018-03-04T03:21:15.078Z,0.00
2018-03-04T03:22:15.133Z,0.00
2018-03-04T03:23:15.186Z,0.00
2018-03-04T03:24:15.240Z,0.00
2018-03-04T03:25:15.292Z,0.00
2018-03-04T03:26:15.345Z,0.00
2018-03-04T03:27:15.400Z,0.00
2018-03-04T03:28:15.455Z,0.00
2018-03-04T03:29:15.506Z,0.00
2018-03-04T03:30:15.561Z,0.00
2018-03-04T03:31:15.613Z,0.00
2018-03-04T03:32:15.667Z,0.00
2018-03-04T03:33:15.720Z,0.00
2018-03-04T03:34:15.773Z,0.00
2018-03-04T03:35:15.829Z,0.00
2018-03-04T03:36:15.881Z,0.00
2018-03-04T03:37:15.932Z,0.00
2018-03-04T03:38:15.986Z,0.00
2018-03-04T03:39:16.042Z,0.00
2018-03-04T03:40:16.095Z,0.00
2018-03-04T03:41:16.146Z,0.00
2018-03-04T03:42:16.202Z,0.00
2018-03-04T03:43:16.254Z,0.00
2018-03-04T03:44:16.308Z,0.00
2018-03-04T03:45:16.361Z,0.00
2018-03-04T03:46:16.415Z,0.00
2018-03-04T03:47:16.469Z,0.00
2018-03-04T03:48:16.522Z,0.00
2018-03-04T03:49:16.574Z,0.00
2018-03-04T03:50:16.628Z,0.00
2018-03-04T03:51:16.682Z,0.00
2018-03-04T03:52:16.739Z,0.00
2018-03-04T03:53:16.787Z,0.00
2018-03-04T03:54:16.842Z,0.00
2018-03-04T03:55:16.895Z,0.00
2018-03-04T03:56:16.948Z,0.00
2018-03-04T03:57:17.002Z,0.00
2018-03-04T03:58:17.054Z,0.00
2018-03-04T03:59:17.108Z,0.00
2018-03-04T04:00:17.176Z,0.00
2018-03-04T04:01:17.214Z,0.00
2018-03-04T04:02:17.268Z,0.00
2018-03-04T04:03:17.320Z,0.00
2018-03-04T04:04:17.373Z,0.00
2018-03-04T04:05:17.429Z,0.00
2018-03-04T04:06:17.479Z,0.00
2018-03-04T04:07:17.536Z,0.00
2018-03-04T04:08:17.586Z,0.00
2018-03-04T04:09:17.639Z,0.00
2018-03-04T04:10:17.692Z,0.00
2018-03-04T04:11:17.746Z,0.00
2018-03-04T04:12:17.799Z,0.00
2018-03-04T04:13:17.852Z,0.00
2018-03-04T04:14:17.904Z,0.00
2018-03-04T04:15:17.957Z,0.00
2018-03-04T04:16:18.014Z,0.00
2018-03-04T04:17:18.063Z,0.00
2018-03-04T04:18:18.117Z,0.00
2018-03-04T04:19:18.170Z,0.00
2018-03-04T04:20:18.223Z,0.00
2018-03-04T04:21:18.275Z,0.00
2018-03-04T04:22:18.329Z,0.00
2018-03-04T04:23:18.380Z,0.00
2018-03-04T04:24:18.434Z,0.00
2018-03-04T04:25:18.515Z,0.00
2018-03-04T04:26:18.543Z,0.00
2018-03-04T04:27:18.593Z,0.00
2018-03-04T04:28:18.649Z,0.00
2018-03-04T04:29:18.700Z,0.00
2018-03-04T04:30:18.754Z,0.00
2018-03-04T04:31:18.807Z,0.00
2018-03-04T04:32:18.866Z,0.00
2018-03-04T04:33:18.913Z,0.00
2018-03-04T04:34:18.966Z,0.00
2018-03-04T04:35:19.019Z,0.00
2018-03-04T04:36:19.073Z,0.00
2018-03-04T04:37:19.125Z,0.00
2018-03-04T04:38:19.179Z,0.00
2018-03-04T04:39:19.234Z,0.00
2018-03-04T04:40:19.537Z,0.00
2018-03-04T04:41:19.339Z,0.00
2018-03-04T04:42:19.397Z,0.00
2018-03-04T04:43:19.446Z,0.00
2018-03-04T04:44:19.500Z,0.00
2018-03-04T04:45:19.553Z,0.00
2018-03-04T04:46:19.604Z,0.00
2018-03-04T04:47:19.662Z,0.00
2018-03-04T04:48:19.712Z,0.00
2018-03-04T04:49:19.764Z,0.00
2018-03-04T04:50:19.818Z,0.00
2018-03-04T04:51:19.871Z,0.00
2018-03-04T04:52:19.926Z,0.00
2018-03-04T04:53:19.976Z,0.00
2018-03-04T04:54:20.030Z,0.00
2018-03-04T04:55:20.086Z,0.00
2018-03-04T04:56:20.137Z,0.00
2018-03-04T04:57:20.189Z,0.00
2018-03-04T04:58:20.244Z,0.00
2018-03-04T04:59:20.296Z,0.00
2018-03-04T05:00:20.349Z,0.00
2018-03-04T05:01:20.437Z,0.00
2018-03-04T05:02:20.456Z,0.00
2018-03-04T05:03:20.761Z,0.00
2018-03-04T05:04:20.567Z,0.00
2018-03-04T05:05:20.616Z,0.00
2018-03-04T05:06:20.670Z,0.00
2018-03-04T05:07:20.721Z,0.00
2018-03-04T05:08:20.775Z,0.00
2018-03-04T05:09:20.828Z,0.00
2018-03-04T05:10:20.881Z,0.00
2018-03-04T05:11:20.934Z,0.00
2018-03-04T05:12:20.987Z,0.00
2018-03-04T05:13:21.039Z,0.00
2018-03-04T05:14:21.093Z,0.00
2018-03-04T05:15:21.148Z,0.00
2018-03-04T05:16:21.201Z,0.00
2018-03-04T05:17:21.255Z,0.00
2018-03-04T05:18:21.308Z,0.00
2018-03-04T05:19:21.360Z,0.00
2018-03-04T05:20:21.415Z,0.00
2018-03-04T05:21:21.468Z,0.00
2018-03-04T05:22:21.521Z,0.00
2018-03-04T05:23:21.574Z,0.00
2018-03-04T05:24:21.627Z,0.00
2018-03-04T05:25:21.679Z,0.00
2018-03-04T05:26:21.732Z,0.00
2018-03-04T05:27:21.790Z,0.00
2018-03-04T05:28:21.838Z,0.00
2018-03-04T05:29:21.891Z,0.00
2018-03-04T05:30:21.945Z,0.00
2018-03-04T05:31:21.998Z,0.00
2018-03-04T05:32:22.052Z,0.00
2018-03-04T05:33:22.105Z,0.00
2018-03-04T05:34:22.158Z,0.00
2018-03-04T05:35:22.210Z,0.00
2018-03-04T05:36:22.264Z,0.00
2018-03-04T05:37:22.316Z,0.00
2018-03-04T05:38:22.374Z,0.00
2018-03-04T05:39:22.422Z,4.00
2018-03-04T05:40:22.477Z,4.00
2018-03-04T05:41:22.530Z,0.00
2018-03-04T05:42:22.583Z,4.00
2018-03-04T05:43:22.635Z,4.00
2018-03-04T05:44:22.688Z,4.00
2018-03-04T05:45:22.744Z,4.00
2018-03-04T05:46:22.792Z,4.00
2018-03-04T05:47:22.846Z,8.00
2018-03-04T05:48:22.900Z,12.00
2018-03-04T05:49:22.954Z,12.00
2018-03-04T05:50:23.006Z,12.00
2018-03-04T05:51:23.059Z,16.00
2018-03-04T05:52:23.111Z,20.00
2018-03-04T05:53:23.164Z,24.00
2018-03-04T05:54:23.217Z,24.00
2018-03-04T05:55:23.269Z,28.00
2018-03-04T05:56:23.324Z,32.00
2018-03-04T05:57:23.375Z,36.00
2018-03-04T05:58:23.428Z,44.00
2018-03-04T05:59:23.481Z,48.00
2018-03-04T06:00:23.785Z,60.00
2018-03-04T06:01:23.588Z,68.00
2018-03-04T06:02:23.647Z,80.00
2018-03-04T06:03:23.693Z,92.00
2018-03-04T06:04:23.747Z,100.00
2018-03-04T06:05:23.798Z,112.00
2018-03-04T06:06:24.102Z,124.00
2018-03-04T06:07:23.907Z,144.00
2018-03-04T06:08:23.959Z,156.00
2018-03-04T06:09:24.014Z,172.00
2018-03-04T06:10:24.065Z,188.00
2018-03-04T06:11:24.118Z,204.00
2018-03-04T06:12:24.172Z,224.00
2018-03-04T06:13:24.228Z,240.00
2018-03-04T06:14:24.279Z,264.00
2018-03-04T06:15:24.332Z,288.00
2018-03-04T06:16:24.384Z,312.00
2018-03-04T06:17:24.436Z,336.00
2018-03-04T06:18:24.489Z,364.00
2018-03-04T06:19:24.543Z,392.00
2018-03-04T06:20:24.597Z,416.00
2018-03-04T06:21:24.649Z,440.00
2018-03-04T06:22:24.703Z,460.00
2018-03-04T06:23:24.757Z,492.00
2018-03-04T06:24:24.810Z,516.00
2018-03-04T06:25:24.862Z,552.00
2018-03-04T06:26:24.915Z,580.00
2018-03-04T06:27:24.974Z,604.00
2018-03-04T06:28:25.022Z,640.00
2018-03-04T06:29:25.075Z,680.00
2018-03-04T06:30:25.128Z,712.00
2018-03-04T06:31:25.183Z,752.00
2018-03-04T06:32:25.236Z,792.00
2018-03-04T06:33:25.292Z,820.00
2018-03-04T06:34:25.342Z,852.00
2018-03-04T06:35:25.396Z,900.00
2018-03-04T06:36:25.449Z,968.00
2018-03-04T06:37:25.500Z,1036.00
2018-03-04T06:38:25.554Z,1080.00
2018-03-04T06:39:25.640Z,1120.00
2018-03-04T06:40:26.470Z,1164.00
2018-03-04T06:41:25.714Z,1200.00
2018-03-04T06:42:25.769Z,1236.00
2018-03-04T06:43:25.828Z,1268.00
2018-03-04T06:44:25.876Z,1300.00
2018-03-04T06:45:25.935Z,1320.00
2018-03-04T06:46:25.981Z,1328.00
2018-03-04T06:47:26.034Z,1360.00
2018-03-04T06:48:26.088Z,1384.00
2018-03-04T06:49:26.140Z,1452.00
2018-03-04T06:50:26.193Z,1544.00
2018-03-04T06:51:26.248Z,1604.00
2018-03-04T06:52:26.305Z,1620.00
2018-03-04T06:53:26.352Z,1596.00
2018-03-04T06:54:26.408Z,1596.00
2018-03-04T06:55:26.486Z,1660.00
2018-03-04T06:56:26.514Z,1732.00
2018-03-04T06:57:26.571Z,1708.00
2018-03-04T06:58:26.620Z,1676.00
2018-03-04T06:59:26.673Z,1760.00
2018-03-04T07:00:26.728Z,1892.00
2018-03-04T07:01:26.782Z,1976.00
2018-03-04T07:02:26.837Z,1964.00
2018-03-04T07:03:27.138Z,2024.00
2018-03-04T07:04:26.942Z,2184.00
2018-03-04T07:05:26.995Z,2248.00
2018-03-04T07:06:27.048Z,2252.00
2018-03-04T07:07:27.101Z,2256.00
2018-03-04T07:08:27.156Z,2268.00
2018-03-04T07:09:27.207Z,2292.00
2018-03-04T07:10:27.273Z,2356.00
2018-03-04T07:11:27.323Z,2452.00
2018-03-04T07:12:27.370Z,2524.00
2018-03-04T07:13:27.429Z,2588.00
2018-03-04T07:14:27.477Z,2644.00
2018-03-04T07:15:27.530Z,2852.00
2018-03-04T07:16:27.583Z,3116.00
2018-03-04T07:17:27.638Z,3180.00
2018-03-04T07:18:27.692Z,3160.00
2018-03-04T07:19:27.745Z,3212.00
2018-03-04T07:20:27.799Z,3252.00
2018-03-04T07:21:27.851Z,3200.00
2018-03-04T07:22:27.906Z,3076.00
2018-03-04T07:23:28.009Z,3176.00
2018-03-04T07:24:28.015Z,3296.00
2018-03-04T07:25:28.069Z,3256.00
2018-03-04T07:26:28.122Z,3240.00
2018-03-04T07:27:28.175Z,3324.00
2018-03-04T07:28:28.231Z,3368.00
2018-03-04T07:29:28.283Z,3468.00
2018-03-04T07:30:28.337Z,3592.00
2018-03-04T07:31:28.391Z,3716.00
2018-03-04T07:32:28.474Z,3724.00
2018-03-04T07:33:28.499Z,3628.00
2018-03-04T07:34:28.554Z,3636.00
2018-03-04T07:35:28.608Z,3812.00
2018-03-04T07:36:28.662Z,3952.00
2018-03-04T07:37:28.714Z,4000.00
2018-03-04T07:38:28.774Z,3960.00
2018-03-04T07:39:28.824Z,3892.00
2018-03-04T07:40:28.877Z,3872.00
2018-03-04T07:41:28.932Z,3860.00
2018-03-04T07:42:28.987Z,3900.00
2018-03-04T07:43:29.041Z,3924.00
2018-03-04T07:44:29.098Z,3908.00
2018-03-04T07:45:29.152Z,4012.00
2018-03-04T07:46:29.203Z,4160.00
2018-03-04T07:47:29.258Z,4260.00
2018-03-04T07:48:29.313Z,4280.00
2018-03-04T07:49:29.443Z,4364.00
2018-03-04T07:50:29.419Z,4464.00
2018-03-04T07:51:29.474Z,4552.00
2018-03-04T07:52:29.544Z,4652.00
2018-03-04T07:53:29.893Z,4680.00
2018-03-04T07:54:29.640Z,4696.00
2018-03-04T07:55:29.941Z,4752.00
2018-03-04T07:56:29.747Z,4848.00
2018-03-04T07:57:29.813Z,4852.00
2018-03-04T07:58:29.858Z,4880.00
2018-03-04T07:59:29.947Z,5004.00
2018-03-04T08:00:29.975Z,5204.00
2018-03-04T08:01:30.017Z,5228.00
2018-03-04T08:02:30.071Z,5180.00
2018-03-04T08:03:30.131Z,5420.00
2018-03-04T08:04:30.181Z,5692.00
2018-03-04T08:05:30.235Z,5628.00
2018-03-04T08:06:30.591Z,5612.00
2018-03-04T08:07:30.344Z,5552.00
2018-03-04T08:08:30.399Z,5644.00
2018-03-04T08:09:30.454Z,5880.00
2018-03-04T08:10:30.508Z,5480.00
2018-03-04T08:11:30.563Z,5624.00
2018-03-04T08:12:30.617Z,5976.00
2018-03-04T08:13:30.672Z,4196.00
2018-03-04T08:14:30.727Z,5284.00
2018-03-04T08:15:30.784Z,6216.00
2018-03-04T08:16:30.844Z,6524.00
2018-03-04T08:17:30.892Z,6556.00
2018-03-04T08:18:30.992Z,6340.00
2018-03-04T08:19:31.002Z,6244.00
2018-03-04T08:20:31.056Z,6228.00
2018-03-04T08:21:31.110Z,6464.00
2018-03-04T08:22:31.165Z,6832.00
2018-03-04T08:23:31.221Z,6816.00
2018-03-04T08:24:31.276Z,6580.00
2018-03-04T08:25:31.330Z,6532.00
2018-03-04T08:26:31.384Z,6876.00
2018-03-04T08:27:31.440Z,6988.00
2018-03-04T08:28:31.497Z,6940.00
2018-03-04T08:29:31.550Z,7016.00
2018-03-04T08:30:31.605Z,7036.00
2018-03-04T08:31:31.660Z,7180.00
2018-03-04T08:32:31.716Z,7400.00
2018-03-04T08:33:31.770Z,7432.00
2018-03-04T08:34:31.851Z,7188.00
2018-03-04T08:35:31.884Z,7032.00
2018-03-04T08:36:31.936Z,7132.00
2018-03-04T08:37:31.990Z,7328.00
2018-03-04T08:38:32.049Z,7436.00
2018-03-04T08:39:32.104Z,7572.00
2018-03-04T08:40:32.157Z,8084.00
2018-03-04T08:41:32.211Z,8356.00
2018-03-04T08:42:32.266Z,8232.00
2018-03-04T08:43:32.322Z,8272.00
2018-03-04T08:44:32.378Z,8572.00
2018-03-04T08:45:32.684Z,8636.00
2018-03-04T08:46:32.488Z,8668.00
2018-03-04T08:47:32.543Z,8540.00
2018-03-04T08:48:32.598Z,8308.00
2018-03-04T08:49:32.674Z,8208.00
2018-03-04T08:50:32.709Z,8280.00
2018-03-04T08:51:32.765Z,8428.00
2018-03-04T08:52:32.821Z,8352.00
2018-03-04T08:53:32.875Z,8208.00
2018-03-04T08:54:32.932Z,8120.00
2018-03-04T08:55:32.995Z,7896.00
2018-03-04T08:56:33.042Z,7884.00
2018-03-04T08:57:33.098Z,8076.00
2018-03-04T08:58:33.153Z,8244.00
2018-03-04T08:59:33.208Z,8524.00
2018-03-04T09:00:33.265Z,8636.00
2018-03-04T09:01:33.321Z,8568.00
2018-03-04T09:02:33.375Z,8764.00
2018-03-04T09:03:33.431Z,8796.00
2018-03-04T09:04:33.486Z,8844.00
2018-03-04T09:05:33.548Z,8688.00
2018-03-04T09:06:33.602Z,8592.00
2018-03-04T09:07:33.654Z,8764.00
2018-03-04T09:08:33.710Z,9068.00
2018-03-04T09:09:33.807Z,9064.00
2018-03-04T09:10:33.820Z,9136.00
2018-03-04T09:11:33.877Z,9468.00
2018-03-04T09:12:33.931Z,10004.00
2018-03-04T09:13:33.986Z,10116.00
2018-03-04T09:14:34.043Z,10084.00
2018-03-04T09:15:34.109Z,10256.00
2018-03-04T09:16:34.154Z,10348.00
2018-03-04T09:17:34.693Z,10140.00
2018-03-04T09:18:34.265Z,10124.00
2018-03-04T09:19:34.321Z,10672.00
2018-03-04T09:20:34.378Z,10788.00
2018-03-04T09:21:34.432Z,11196.00
2018-03-04T09:22:34.488Z,11712.00
2018-03-04T09:23:34.545Z,11964.00
2018-03-04T09:24:34.601Z,11952.00
2018-03-04T09:25:34.660Z,11900.00
2018-03-04T09:26:34.712Z,11316.00
2018-03-04T09:27:34.768Z,11764.00
2018-03-04T09:28:34.825Z,11548.00
2018-03-04T09:29:34.879Z,11328.00
2018-03-04T09:30:34.936Z,11000.00
2018-03-04T09:31:35.672Z,10824.00
2018-03-04T09:32:35.048Z,10740.00
2018-03-04T09:33:35.462Z,10844.00
2018-03-04T09:34:35.160Z,10852.00
2018-03-04T09:35:35.244Z,11252.00
2018-03-04T09:36:35.273Z,10620.00
2018-03-04T09:37:35.328Z,8820.00
2018-03-04T09:38:35.930Z,8440.00
2018-03-04T09:39:35.441Z,7092.00
2018-03-04T09:40:35.497Z,9416.00
2018-03-04T09:41:35.554Z,9072.00
2018-03-04T09:42:35.611Z,11712.00
2018-03-04T09:43:35.668Z,12380.00
2018-03-04T09:44:35.722Z,12736.00
2018-03-04T09:45:35.779Z,12428.00
2018-03-04T09:46:35.834Z,12716.00
2018-03-04T09:47:35.892Z,12404.00
2018-03-04T09:48:35.948Z,12468.00
2018-03-04T09:49:36.005Z,12584.00
2018-03-04T09:50:36.061Z,13140.00
2018-03-04T09:51:36.118Z,13268.00
2018-03-04T09:52:36.175Z,13332.00
2018-03-04T09:53:36.231Z,13476.00
2018-03-04T09:54:36.340Z,13544.00
2018-03-04T09:55:36.357Z,13752.00
2018-03-04T09:56:36.402Z,14164.00
2018-03-04T09:57:36.458Z,14420.00
2018-03-04T09:58:36.516Z,15268.00
2018-03-04T09:59:36.581Z,15444.00
2018-03-04T10:00:36.629Z,15568.00
2018-03-04T10:01:36.685Z,15504.00
2018-03-04T10:02:36.742Z,15476.00
2018-03-04T10:03:36.800Z,15740.00
2018-03-04T10:04:36.856Z,16440.00
2018-03-04T10:05:36.914Z,16692.00
2018-03-04T10:06:37.121Z,17632.00
2018-03-04T10:07:37.029Z,18528.00
2018-03-04T10:08:37.086Z,18784.00
2018-03-04T10:09:37.774Z,18368.00
2018-03-04T10:10:37.838Z,19136.00
2018-03-04T10:11:37.257Z,19488.00
2018-03-04T10:12:37.314Z,19360.00
2018-03-04T10:13:37.375Z,19328.00
2018-03-04T10:14:37.428Z,20096.00
2018-03-04T10:15:37.491Z,20704.00
2018-03-04T10:16:37.544Z,20448.00
2018-03-04T10:17:37.627Z,20320.00
2018-03-04T10:18:37.671Z,19776.00
2018-03-04T10:19:37.716Z,19200.00
2018-03-04T10:20:37.775Z,19008.00
2018-03-04T10:21:37.832Z,19392.00
2018-03-04T10:22:37.890Z,19840.00
2018-03-04T10:23:37.948Z,20224.00
2018-03-04T10:24:38.008Z,20544.00
2018-03-04T10:25:38.064Z,20448.00
2018-03-04T10:26:38.124Z,19648.00
2018-03-04T10:27:38.184Z,19424.00
2018-03-04T10:28:38.239Z,19296.00
2018-03-04T10:29:38.548Z,19296.00
2018-03-04T10:30:38.664Z,19424.00
2018-03-04T10:31:38.902Z,19968.00
2018-03-04T10:32:38.473Z,19872.00
2018-03-04T10:33:39.140Z,19744.00
2018-03-04T10:34:38.588Z,20192.00
2018-03-04T10:35:38.647Z,20928.00
2018-03-04T10:36:38.707Z,22208.00
2018-03-04T10:37:38.765Z,22944.00
2018-03-04T10:38:38.824Z,22752.00
2018-03-04T10:39:38.894Z,22528.00
2018-03-04T10:40:39.191Z,22272.00
2018-03-04T10:41:39.005Z,22528.00
2018-03-04T10:42:39.056Z,22496.00
2018-03-04T10:43:39.116Z,21472.00
2018-03-04T10:44:39.175Z,21376.00
2018-03-04T10:45:39.233Z,21056.00
2018-03-04T10:46:39.291Z,20928.00
2018-03-04T10:47:39.353Z,19744.00
2018-03-04T10:48:39.410Z,17856.00
2018-03-04T10:49:39.468Z,15968.00
2018-03-04T10:50:39.529Z,14760.00
2018-03-04T10:51:39.588Z,13872.00
2018-03-04T10:52:39.646Z,13580.00
2018-03-04T10:53:39.729Z,12496.00
2018-03-04T10:54:39.765Z,11456.00
2018-03-04T10:55:39.824Z,10896.00
2018-03-04T10:56:39.885Z,10448.00
2018-03-04T10:57:39.945Z,10332.00
2018-03-04T10:58:40.261Z,10064.00
2018-03-04T10:59:40.059Z,9964.00
2018-03-04T11:00:40.119Z,9880.00
2018-03-04T11:01:40.177Z,9880.00
2018-03-04T11:02:40.236Z,9788.00
2018-03-04T11:03:40.294Z,9776.00
2018-03-04T11:04:40.353Z,9884.00
2018-03-04T11:05:40.411Z,9824.00
2018-03-04T11:06:40.469Z,9716.00
2018-03-04T11:07:40.528Z,9824.00
2018-03-04T11:08:40.586Z,10016.00
2018-03-04T11:09:40.670Z,10120.00
2018-03-04T11:10:41.134Z,10208.00
2018-03-04T11:11:40.762Z,10356.00
2018-03-04T11:12:40.821Z,10600.00
2018-03-04T11:13:40.877Z,10848.00
2018-03-04T11:14:40.935Z,11208.00
2018-03-04T11:15:40.994Z,11636.00
2018-03-04T11:16:41.054Z,11932.00
2018-03-04T11:17:41.113Z,12404.00
2018-03-04T11:18:41.168Z,13156.00
2018-03-04T11:19:41.226Z,13304.00
2018-03-04T11:20:41.284Z,16752.00
2018-03-04T11:21:41.343Z,18464.00
2018-03-04T11:22:41.400Z,21280.00
2018-03-04T11:23:41.459Z,17212.00
2018-03-04T11:24:41.518Z,25344.00
2018-03-04T11:25:41.577Z,18112.00
2018-03-04T11:26:41.635Z,20576.00
2018-03-04T11:27:41.695Z,18752.00
2018-03-04T11:28:41.787Z,27360.00
2018-03-04T11:29:41.812Z,30048.00
2018-03-04T11:30:41.871Z,19136.00
2018-03-04T11:31:41.933Z,22880.00
2018-03-04T11:32:41.993Z,15716.00
2018-03-04T11:33:42.051Z,27072.00
2018-03-04T11:34:42.112Z,28192.00
2018-03-04T11:35:42.171Z,26112.00
2018-03-04T11:36:42.238Z,26048.00
2018-03-04T11:37:42.542Z,26944.00
2018-03-04T11:38:42.352Z,20384.00
2018-03-04T11:39:42.413Z,26912.00
2018-03-04T11:40:42.475Z,18848.00
2018-03-04T11:41:42.536Z,26976.00
2018-03-04T11:42:42.596Z,25536.00
2018-03-04T11:43:42.658Z,25888.00
2018-03-04T11:44:42.720Z,23648.00
2018-03-04T11:45:42.780Z,25344.00
2018-03-04T11:46:42.841Z,20768.00
2018-03-04T11:47:42.904Z,25696.00
2018-03-04T11:48:42.966Z,25152.00
2018-03-04T11:49:43.040Z,23712.00
2018-03-04T11:50:43.087Z,20544.00
2018-03-04T11:51:43.151Z,24736.00
2018-03-04T11:52:43.213Z,25280.00
2018-03-04T11:53:43.274Z,24928.00
2018-03-04T11:54:43.337Z,24928.00
2018-03-04T11:55:43.400Z,19552.00
2018-03-04T11:56:43.462Z,22848.00
2018-03-04T11:57:43.526Z,20352.00
2018-03-04T11:58:43.587Z,19872.00
2018-03-04T11:59:43.650Z,25664.00
2018-03-04T12:00:43.714Z,18368.00
2018-03-04T12:01:43.777Z,25216.00
2018-03-04T12:02:43.839Z,25920.00
2018-03-04T12:03:43.905Z,26048.00
2018-03-04T12:04:43.967Z,26848.00
2018-03-04T12:05:44.279Z,27584.00
2018-03-04T12:06:44.097Z,28832.00
2018-03-04T12:07:44.159Z,29536.00
2018-03-04T12:08:44.223Z,30848.00
2018-03-04T12:09:44.290Z,32256.00
2018-03-04T12:10:44.351Z,33696.00
2018-03-04T12:11:44.413Z,35392.00
2018-03-04T12:12:44.478Z,35808.00
2018-03-04T12:13:44.542Z,36384.00
2018-03-04T12:14:44.608Z,36544.00
2018-03-04T12:15:44.672Z,36896.00
2018-03-04T12:16:44.735Z,37984.00
2018-03-04T12:17:44.800Z,37600.00
2018-03-04T12:18:44.864Z,38848.00
2018-03-04T12:19:44.929Z,39392.00
2018-03-04T12:20:44.995Z,38688.00
2018-03-04T12:21:45.059Z,37408.00
2018-03-04T12:22:45.123Z,38784.00
2018-03-04T12:23:45.188Z,37472.00
2018-03-04T12:24:45.255Z,36352.00
2018-03-04T12:25:45.317Z,37920.00
2018-03-04T12:26:45.868Z,38624.00
2018-03-04T12:27:45.446Z,40064.00
2018-03-04T12:28:45.511Z,41216.00
2018-03-04T12:29:45.577Z,40352.00
2018-03-04T12:30:45.641Z,40288.00
2018-03-04T12:31:45.707Z,41664.00
2018-03-04T12:32:45.772Z,40768.00
2018-03-04T12:33:45.835Z,41824.00